N36S KGNV-KSGJ
Flight info
| Callsign | N36S |
|---|---|
| Flight time | 0h 37m |
| Altitude | 9000 |
| Route | MATEO |
| Aircraft | BE36/L-VGD/C |
Departure
| Time | 2026-05-09 01:50 |
|---|---|
| Airport | Gainesville Regional Airport (KGNV) |
Arrival
| Time | 2026-05-09 02:27 |
|---|---|
| Airport | Northeast Florida Regional Airport (KSGJ) |
| Time | Latitude | Longitude | Altitude | Speed | Heading |
|---|---|---|---|---|---|
| 2026-05-09 01:28 | 29.69501 | -82.27783 | 141 ft | 0 kts | 137° |
| 2026-05-09 01:42 | 29.69482 | -82.27774 | 140 ft | 7 kts | 181° |
| 2026-05-09 01:42 | 29.69414 | -82.27791 | 138 ft | 13 kts | 235° |
| 2026-05-09 01:43 | 29.69371 | -82.27878 | 140 ft | 12 kts | 241° |
| 2026-05-09 01:43 | 29.69330 | -82.27962 | 142 ft | 12 kts | 240° |
| 2026-05-09 01:43 | 29.69295 | -82.28035 | 146 ft | 9 kts | 241° |
| 2026-05-09 01:43 | 29.69267 | -82.28093 | 148 ft | 8 kts | 241° |
| 2026-05-09 01:44 | 29.69234 | -82.28141 | 148 ft | 7 kts | 205° |
| 2026-05-09 01:44 | 29.69231 | -82.28142 | 148 ft | 0 kts | 201° |
| 2026-05-09 01:49 | 29.69229 | -82.28143 | 148 ft | 2 kts | 201° |
| 2026-05-09 01:49 | 29.69223 | -82.28146 | 148 ft | 4 kts | 200° |
| 2026-05-09 01:49 | 29.69155 | -82.28164 | 148 ft | 14 kts | 175° |
| 2026-05-09 01:49 | 29.69100 | -82.28103 | 146 ft | 12 kts | 71° |
| 2026-05-09 01:50 | 29.69173 | -82.27944 | 143 ft | 55 kts | 60° |
| 2026-05-09 01:50 | 29.69450 | -82.27391 | 308 ft | 89 kts | 62° |
| 2026-05-09 01:50 | 29.69759 | -82.26784 | 883 ft | 81 kts | 69° |
| 2026-05-09 01:50 | 29.69728 | -82.26100 | 1259 ft | 96 kts | 120° |
| 2026-05-09 01:51 | 29.69340 | -82.25509 | 1729 ft | 92 kts | 112° |
| 2026-05-09 01:51 | 29.69287 | -82.24772 | 2128 ft | 95 kts | 89° |
| 2026-05-09 01:51 | 29.69339 | -82.24007 | 2487 ft | 101 kts | 84° |
| 2026-05-09 01:51 | 29.69406 | -82.23154 | 2763 ft | 113 kts | 85° |
| 2026-05-09 01:52 | 29.69489 | -82.22221 | 3032 ft | 122 kts | 84° |
| 2026-05-09 01:52 | 29.69584 | -82.21233 | 3297 ft | 127 kts | 83° |
| 2026-05-09 01:52 | 29.69684 | -82.20212 | 3544 ft | 130 kts | 84° |
| 2026-05-09 01:52 | 29.69779 | -82.19247 | 4008 ft | 117 kts | 85° |
| 2026-05-09 01:53 | 29.69867 | -82.18356 | 4377 ft | 110 kts | 85° |
| 2026-05-09 01:53 | 29.69956 | -82.17493 | 4730 ft | 108 kts | 85° |
| 2026-05-09 01:53 | 29.70030 | -82.16652 | 5073 ft | 103 kts | 86° |
| 2026-05-09 01:53 | 29.70107 | -82.15873 | 5394 ft | 97 kts | 86° |
| 2026-05-09 01:54 | 29.70177 | -82.15118 | 5713 ft | 94 kts | 87° |
| 2026-05-09 01:54 | 29.70248 | -82.14383 | 5977 ft | 91 kts | 88° |
| 2026-05-09 01:54 | 29.70318 | -82.13665 | 6221 ft | 90 kts | 88° |
| 2026-05-09 01:54 | 29.70386 | -82.12955 | 6441 ft | 89 kts | 88° |
| 2026-05-09 01:55 | 29.70454 | -82.12255 | 6644 ft | 88 kts | 88° |
| 2026-05-09 01:55 | 29.70514 | -82.11544 | 6834 ft | 94 kts | 89° |
| 2026-05-09 01:55 | 29.70585 | -82.10770 | 6975 ft | 102 kts | 88° |
| 2026-05-09 01:55 | 29.70668 | -82.09913 | 7133 ft | 113 kts | 87° |
| 2026-05-09 01:56 | 29.70754 | -82.08975 | 7293 ft | 123 kts | 86° |
| 2026-05-09 01:56 | 29.70850 | -82.07982 | 7461 ft | 129 kts | 86° |
| 2026-05-09 01:56 | 29.70952 | -82.06942 | 7653 ft | 132 kts | 87° |
| 2026-05-09 01:56 | 29.71053 | -82.05906 | 7904 ft | 129 kts | 87° |
| 2026-05-09 01:57 | 29.71151 | -82.04892 | 8147 ft | 126 kts | 87° |
| 2026-05-09 01:57 | 29.71246 | -82.03899 | 8379 ft | 124 kts | 87° |
| 2026-05-09 01:57 | 29.71339 | -82.02930 | 8616 ft | 120 kts | 88° |
| 2026-05-09 01:57 | 29.71429 | -82.01994 | 8849 ft | 115 kts | 88° |
| 2026-05-09 01:58 | 29.71515 | -82.01088 | 9034 ft | 116 kts | 88° |
| 2026-05-09 01:58 | 29.71602 | -82.00098 | 9056 ft | 132 kts | 88° |
| 2026-05-09 01:58 | 29.71704 | -81.99001 | 9061 ft | 146 kts | 87° |
| 2026-05-09 01:58 | 29.71819 | -81.97795 | 9063 ft | 156 kts | 86° |
| 2026-05-09 01:59 | 29.71940 | -81.96525 | 9063 ft | 164 kts | 86° |
| 2026-05-09 01:59 | 29.72069 | -81.95188 | 9066 ft | 172 kts | 86° |
| 2026-05-09 01:59 | 29.72201 | -81.93789 | 9068 ft | 179 kts | 86° |
| 2026-05-09 01:59 | 29.72337 | -81.92345 | 9069 ft | 183 kts | 86° |
| 2026-05-09 02:00 | 29.72475 | -81.90885 | 9076 ft | 183 kts | 86° |
| 2026-05-09 02:00 | 29.72611 | -81.89442 | 9078 ft | 184 kts | 86° |
| 2026-05-09 02:00 | 29.72751 | -81.87969 | 9080 ft | 186 kts | 86° |
| 2026-05-09 02:00 | 29.72890 | -81.86483 | 9083 ft | 188 kts | 86° |
| 2026-05-09 02:01 | 29.73031 | -81.84982 | 9079 ft | 189 kts | 86° |
| 2026-05-09 02:01 | 29.73172 | -81.83475 | 9080 ft | 190 kts | 86° |
| 2026-05-09 02:01 | 29.73313 | -81.81963 | 9080 ft | 190 kts | 86° |
| 2026-05-09 02:01 | 29.73455 | -81.80451 | 9070 ft | 190 kts | 86° |
| 2026-05-09 02:02 | 29.73596 | -81.78944 | 9065 ft | 189 kts | 86° |
| 2026-05-09 02:02 | 29.73736 | -81.77446 | 9064 ft | 187 kts | 86° |
| 2026-05-09 02:02 | 29.73873 | -81.75967 | 9060 ft | 185 kts | 86° |
| 2026-05-09 02:02 | 29.74007 | -81.74527 | 9059 ft | 182 kts | 86° |
| 2026-05-09 02:03 | 29.74142 | -81.73083 | 9057 ft | 181 kts | 86° |
| 2026-05-09 02:03 | 29.74276 | -81.71646 | 9055 ft | 180 kts | 86° |
| 2026-05-09 02:03 | 29.74408 | -81.70213 | 9053 ft | 180 kts | 86° |
| 2026-05-09 02:03 | 29.74540 | -81.68783 | 9051 ft | 180 kts | 86° |
| 2026-05-09 02:04 | 29.74672 | -81.67354 | 9049 ft | 179 kts | 86° |
| 2026-05-09 02:04 | 29.74804 | -81.65929 | 9048 ft | 179 kts | 86° |
| 2026-05-09 02:04 | 29.74884 | -81.65062 | 9028 ft | 173 kts | 86° |
| 2026-05-09 02:04 | 29.75010 | -81.63709 | 9026 ft | 173 kts | 86° |
| 2026-05-09 02:05 | 29.75136 | -81.62323 | 9027 ft | 175 kts | 86° |
| 2026-05-09 02:05 | 29.75264 | -81.60928 | 9028 ft | 176 kts | 86° |
| 2026-05-09 02:05 | 29.75393 | -81.59520 | 9029 ft | 177 kts | 86° |
| 2026-05-09 02:05 | 29.75523 | -81.58106 | 9031 ft | 178 kts | 86° |
| 2026-05-09 02:06 | 29.75653 | -81.56690 | 9035 ft | 178 kts | 86° |
| 2026-05-09 02:06 | 29.75783 | -81.55271 | 9026 ft | 178 kts | 86° |
| 2026-05-09 02:06 | 29.75913 | -81.53851 | 9026 ft | 178 kts | 86° |
| 2026-05-09 02:07 | 29.76171 | -81.51026 | 9022 ft | 179 kts | 86° |
| 2026-05-09 02:07 | 29.76300 | -81.49602 | 9009 ft | 179 kts | 86° |
| 2026-05-09 02:07 | 29.76430 | -81.48179 | 9010 ft | 179 kts | 86° |
| 2026-05-09 02:07 | 29.76560 | -81.46753 | 9009 ft | 179 kts | 86° |
| 2026-05-09 02:08 | 29.76992 | -81.45421 | 8998 ft | 181 kts | 50° |
| 2026-05-09 02:08 | 29.77984 | -81.44564 | 9002 ft | 178 kts | 24° |
| 2026-05-09 02:08 | 29.79094 | -81.43923 | 9005 ft | 179 kts | 24° |
| 2026-05-09 02:08 | 29.80202 | -81.43275 | 9005 ft | 179 kts | 24° |
| 2026-05-09 02:09 | 29.81293 | -81.42632 | 9008 ft | 179 kts | 24° |
| 2026-05-09 02:09 | 29.82381 | -81.41985 | 9003 ft | 171 kts | 24° |
| 2026-05-09 02:09 | 29.83407 | -81.41377 | 8967 ft | 163 kts | 24° |
| 2026-05-09 02:09 | 29.84420 | -81.40783 | 8816 ft | 164 kts | 24° |
| 2026-05-09 02:10 | 29.85437 | -81.40182 | 8662 ft | 164 kts | 24° |
| 2026-05-09 02:10 | 29.86455 | -81.39580 | 8514 ft | 164 kts | 24° |
| 2026-05-09 02:10 | 29.87521 | -81.39224 | 8348 ft | 158 kts | 347° |
| 2026-05-09 02:10 | 29.88401 | -81.39807 | 8216 ft | 147 kts | 310° |
| 2026-05-09 02:11 | 29.89132 | -81.40630 | 8072 ft | 147 kts | 310° |
| 2026-05-09 02:11 | 29.89861 | -81.41452 | 7929 ft | 146 kts | 310° |
| 2026-05-09 02:11 | 29.90586 | -81.42271 | 7787 ft | 146 kts | 310° |
| 2026-05-09 02:11 | 29.91311 | -81.43095 | 7643 ft | 146 kts | 310° |
| 2026-05-09 02:12 | 29.92034 | -81.43921 | 7498 ft | 146 kts | 310° |
| 2026-05-09 02:12 | 29.92756 | -81.44749 | 7357 ft | 146 kts | 310° |
| 2026-05-09 02:12 | 29.93477 | -81.45577 | 7215 ft | 146 kts | 310° |
| 2026-05-09 02:12 | 29.94196 | -81.46406 | 7074 ft | 146 kts | 310° |
| 2026-05-09 02:13 | 29.94903 | -81.47225 | 6936 ft | 146 kts | 310° |
| 2026-05-09 02:13 | 29.95620 | -81.48056 | 6804 ft | 147 kts | 310° |
| 2026-05-09 02:13 | 29.96358 | -81.48904 | 6684 ft | 154 kts | 309° |
| 2026-05-09 02:13 | 29.97132 | -81.49808 | 6581 ft | 162 kts | 306° |
| 2026-05-09 02:14 | 29.97898 | -81.50783 | 6438 ft | 164 kts | 311° |
| 2026-05-09 02:14 | 29.98698 | -81.51712 | 6295 ft | 162 kts | 309° |
| 2026-05-09 02:14 | 29.99487 | -81.52648 | 6179 ft | 164 kts | 311° |
| 2026-05-09 02:14 | 30.00304 | -81.53602 | 6003 ft | 173 kts | 313° |
| 2026-05-09 02:15 | 30.00935 | -81.54739 | 5853 ft | 170 kts | 276° |
| 2026-05-09 02:15 | 30.00585 | -81.55976 | 5708 ft | 167 kts | 231° |
| 2026-05-09 02:15 | 29.99867 | -81.56975 | 5568 ft | 164 kts | 249° |
| 2026-05-09 02:15 | 29.99951 | -81.58247 | 5414 ft | 165 kts | 296° |
| 2026-05-09 02:16 | 30.00852 | -81.59025 | 5267 ft | 170 kts | 343° |
| 2026-05-09 02:16 | 30.01965 | -81.58633 | 5155 ft | 180 kts | 41° |
| 2026-05-09 02:16 | 30.02617 | -81.57378 | 5049 ft | 188 kts | 76° |
| 2026-05-09 02:16 | 30.02405 | -81.55940 | 4882 ft | 185 kts | 125° |
| 2026-05-09 02:17 | 30.01394 | -81.55131 | 4737 ft | 178 kts | 171° |
| 2026-05-09 02:17 | 30.00275 | -81.55474 | 4557 ft | 171 kts | 221° |
| 2026-05-09 02:17 | 29.99738 | -81.56635 | 4429 ft | 166 kts | 263° |
| 2026-05-09 02:17 | 30.00041 | -81.57893 | 4269 ft | 165 kts | 299° |
| 2026-05-09 02:18 | 30.00649 | -81.58996 | 4124 ft | 162 kts | 301° |
| 2026-05-09 02:18 | 30.01243 | -81.60099 | 3962 ft | 161 kts | 300° |
| 2026-05-09 02:18 | 30.01841 | -81.61197 | 3854 ft | 163 kts | 303° |
| 2026-05-09 02:18 | 30.02491 | -81.62295 | 3679 ft | 167 kts | 304° |
| 2026-05-09 02:19 | 30.03433 | -81.63048 | 3544 ft | 170 kts | 344° |
| 2026-05-09 02:19 | 30.04572 | -81.62860 | 3385 ft | 168 kts | 29° |
| 2026-05-09 02:19 | 30.05514 | -81.62109 | 3227 ft | 160 kts | 37° |
| 2026-05-09 02:19 | 30.06224 | -81.61181 | 3071 ft | 154 kts | 61° |
| 2026-05-09 02:20 | 30.06598 | -81.60043 | 2912 ft | 150 kts | 72° |
| 2026-05-09 02:20 | 30.06930 | -81.58921 | 2760 ft | 146 kts | 72° |
| 2026-05-09 02:20 | 30.07259 | -81.57828 | 2611 ft | 143 kts | 72° |
| 2026-05-09 02:20 | 30.07587 | -81.56759 | 2461 ft | 140 kts | 72° |
| 2026-05-09 02:21 | 30.07904 | -81.55708 | 2312 ft | 137 kts | 77° |
| 2026-05-09 02:21 | 30.08067 | -81.54632 | 2159 ft | 135 kts | 83° |
| 2026-05-09 02:21 | 30.08089 | -81.53559 | 2029 ft | 132 kts | 98° |
| 2026-05-09 02:21 | 30.07834 | -81.52591 | 2023 ft | 126 kts | 120° |
| 2026-05-09 02:22 | 30.07355 | -81.51760 | 2016 ft | 123 kts | 123° |
| 2026-05-09 02:22 | 30.06865 | -81.50957 | 2005 ft | 123 kts | 125° |
| 2026-05-09 02:22 | 30.06337 | -81.50113 | 1853 ft | 135 kts | 125° |
| 2026-05-09 02:22 | 30.05761 | -81.49234 | 1716 ft | 141 kts | 125° |
| 2026-05-09 02:23 | 30.05195 | -81.48291 | 1616 ft | 143 kts | 120° |
| 2026-05-09 02:23 | 30.04624 | -81.47358 | 1611 ft | 141 kts | 122° |
| 2026-05-09 02:23 | 30.04040 | -81.46451 | 1609 ft | 141 kts | 129° |
| 2026-05-09 02:23 | 30.03463 | -81.45555 | 1611 ft | 142 kts | 124° |
| 2026-05-09 02:24 | 30.02860 | -81.44642 | 1613 ft | 144 kts | 129° |
| 2026-05-09 02:24 | 30.02231 | -81.43743 | 1606 ft | 145 kts | 127° |
| 2026-05-09 02:24 | 30.01661 | -81.42770 | 1607 ft | 148 kts | 123° |
| 2026-05-09 02:24 | 30.01008 | -81.41814 | 1510 ft | 156 kts | 126° |
| 2026-05-09 02:25 | 30.00400 | -81.40753 | 1290 ft | 158 kts | 125° |
| 2026-05-09 02:25 | 29.99726 | -81.39758 | 1068 ft | 155 kts | 126° |
| 2026-05-09 02:25 | 29.99128 | -81.38822 | 861 ft | 133 kts | 122° |
| 2026-05-09 02:25 | 29.98665 | -81.38078 | 712 ft | 93 kts | 123° |
| 2026-05-09 02:26 | 29.98323 | -81.37533 | 557 ft | 81 kts | 122° |
| 2026-05-09 02:26 | 29.97989 | -81.37007 | 483 ft | 87 kts | 123° |
| 2026-05-09 02:26 | 29.97621 | -81.36442 | 397 ft | 88 kts | 124° |
| 2026-05-09 02:26 | 29.97248 | -81.35888 | 307 ft | 87 kts | 123° |
| 2026-05-09 02:27 | 29.96894 | -81.35310 | 199 ft | 89 kts | 123° |
| 2026-05-09 02:27 | 29.96527 | -81.34737 | 47 ft | 87 kts | 124° |
| 2026-05-09 02:27 | 29.96210 | -81.34241 | 13 ft | 63 kts | 124° |
| 2026-05-09 02:27 | 29.96000 | -81.33911 | 15 ft | 41 kts | 126° |
| 2026-05-09 02:28 | 29.95858 | -81.33691 | 15 ft | 29 kts | 126° |
| 2026-05-09 02:28 | 29.95766 | -81.33636 | 18 ft | 13 kts | 212° |
| 2026-05-09 02:28 | 29.95734 | -81.33705 | 18 ft | 10 kts | 298° |
| 2026-05-09 02:28 | 29.95774 | -81.33770 | 17 ft | 10 kts | 306° |
| 2026-05-09 02:29 | 29.95813 | -81.33831 | 17 ft | 9 kts | 306° |
| 2026-05-09 02:29 | 29.95847 | -81.33885 | 17 ft | 7 kts | 306° |
| 2026-05-09 02:29 | 29.95877 | -81.33934 | 17 ft | 9 kts | 307° |
| 2026-05-09 02:29 | 29.95927 | -81.34010 | 15 ft | 15 kts | 306° |
| 2026-05-09 02:30 | 29.95998 | -81.34120 | 13 ft | 18 kts | 306° |
| 2026-05-09 02:30 | 29.95992 | -81.34220 | 13 ft | 13 kts | 187° |
| 2026-05-09 02:30 | 29.95930 | -81.34248 | 14 ft | 9 kts | 210° |
| 2026-05-09 02:30 | 29.95883 | -81.34279 | 15 ft | 7 kts | 223° |
| 2026-05-09 02:31 | 29.95865 | -81.34282 | 15 ft | 0 kts | 96° |